FARRENBERG (FAR1) Information & Weather

WARNING: the data listed below is for informational purposes only and should be confirmed from official sources. Data presented here on this page may be out of date, incomplete or wrong.

Name: FARRENBERG
Identifier: FAR1

Coord: 48.3855N 9.0767E
Var: 1°E

Country: Germany
Municipality: UNKNOWN,
Time Zone: (GMT+01:00) Europe/Berlin

Station Elevation: 2605 ft
Pressure Altitude: 2600 ft
Density Altitude: 2386 ft
Freezing Level: 6140 ft

Civil Twilight
Morning: 06:10 UTC  (07:10 local)
Evening: 17:06 UTC  (18:06 local)

METAR EDDS 082250Z 22010KT 180V260 9999 FEW018 BKN063 07/03 Q1007= [toggle past 4 hours]
(Station: EDDS; distance: 19.2 nm)

TAF EDDS 081700Z 0818/0918 23015G25KT 9999 BKN030 TEMPO 0818/0824 SHRA BKN020CB PROB30 TEMPO 0818/0820 24025G35KT 4000 TSRA TEMPO 0903/0910 21010KT TEMPO 0910/0918 RA=
(Station: EDDS; distance: 19.2 nm)

Upper Winds

Source   Valid 375 1000 2000 2500 3000 5000 6000 8000 10000 12000 14000 16000 18000 21000 24000 26000 30000 34000 39000 44000 52000 60000
GFS 0821/0900 2518+08 2518+07 2518+06 2516+04 2540+03 2651-01 2657-04 2665-07 2569-10 2568-15 2668-18 2675-22 2779-27 2784-32 2791-38 2896-45 2899-52 2891-56 2866-55 2756-55 2754-56 2844-58

SIGMET/AIRMET

None within 25nm.

PIREP

None within 25nm.

NOTAM

None within 25nm.

Runway Data

Frequencies

Nearby Airports

Nearby Navaids